createdAt,value
2023-05-10T00:00:29.905Z,13.49
2023-05-10T00:03:33.125Z,13.50
2023-05-10T00:08:53.145Z,13.46
2023-05-10T00:11:43.751Z,13.40
2023-05-10T00:14:48.835Z,13.35
2023-05-10T00:17:49.725Z,13.29
2023-05-10T00:23:14.780Z,13.32
2023-05-10T00:26:03.807Z,13.30
2023-05-10T00:29:09.962Z,13.25
2023-05-10T00:32:11.458Z,13.26
2023-05-10T00:35:16.420Z,13.36
2023-05-10T00:38:22.865Z,13.35
2023-05-10T00:41:24.643Z,13.36
2023-05-10T00:44:29.665Z,13.44
2023-05-10T00:47:34.655Z,13.45
2023-05-10T00:50:37.056Z,13.56
2023-05-10T00:53:44.329Z,13.61
2023-05-10T00:56:49.826Z,13.62
2023-05-10T00:59:51.577Z,13.66
2023-05-10T01:02:57.152Z,13.67
2023-05-10T01:05:59.479Z,13.60
2023-05-10T01:09:06.559Z,13.55
2023-05-10T01:12:09.037Z,13.58
2023-05-10T01:15:14.983Z,13.59
2023-05-10T01:18:18.809Z,13.58
2023-05-10T01:21:23.003Z,13.63
2023-05-10T01:24:28.511Z,13.66
2023-05-10T01:27:43.064Z,13.72
2023-05-10T01:31:35.792Z,13.71
2023-05-10T01:34:38.419Z,13.79
2023-05-10T01:37:43.840Z,13.80
2023-05-10T01:40:50.290Z,13.75
2023-05-10T01:43:58.204Z,13.70
2023-05-10T01:46:58.298Z,13.66
2023-05-10T01:50:03.199Z,13.60
2023-05-10T01:53:09.195Z,13.63
2023-05-10T01:56:11.912Z,13.58
2023-05-10T01:59:14.093Z,13.59
2023-05-10T02:02:19.766Z,13.52
2023-05-10T02:05:26.697Z,13.50
2023-05-10T02:08:29.503Z,13.51
2023-05-10T02:11:32.903Z,13.49
2023-05-10T02:14:39.631Z,13.36
2023-05-10T02:17:42.518Z,13.28
2023-05-10T02:20:48.326Z,13.23
2023-05-10T02:23:52.445Z,13.20
2023-05-10T02:26:56.670Z,13.21
2023-05-10T02:29:58.993Z,13.22
2023-05-10T02:33:07.007Z,13.27
2023-05-10T02:36:09.804Z,13.30
2023-05-10T02:39:14.703Z,13.39
2023-05-10T02:42:18.256Z,13.48
2023-05-10T02:45:19.260Z,13.50
2023-05-10T02:48:23.857Z,13.56
2023-05-10T02:51:30.326Z,13.60
2023-05-10T02:54:29.569Z,13.63
2023-05-10T02:57:36.947Z,13.68
2023-05-10T03:00:42.350Z,13.68
2023-05-10T03:03:47.845Z,13.69
2023-05-10T03:06:52.389Z,13.70
2023-05-10T03:09:54.787Z,13.76
2023-05-10T03:13:23.153Z,13.77
2023-05-10T03:20:08.196Z,13.67
2023-05-10T03:27:20.228Z,13.62
2023-05-10T03:30:23.546Z,13.65
2023-05-10T03:33:28.855Z,13.64
2023-05-10T03:36:30.083Z,13.64
2023-05-10T03:39:36.850Z,13.68
2023-05-10T03:42:41.619Z,13.72
2023-05-10T03:45:46.785Z,13.73
2023-05-10T03:48:48.745Z,13.75
2023-05-10T03:51:53.665Z,13.76
2023-05-10T03:54:58.656Z,13.77
2023-05-10T03:58:05.205Z,13.76
2023-05-10T04:01:07.378Z,13.77
2023-05-10T04:04:12.749Z,13.80
2023-05-10T04:07:15.300Z,13.82
2023-05-10T04:10:20.314Z,13.77
2023-05-10T04:13:24.370Z,13.75
2023-05-10T04:16:29.749Z,13.70
2023-05-10T04:19:30.274Z,13.71
2023-05-10T04:22:35.538Z,13.70
2023-05-10T04:25:42.114Z,13.52
2023-05-10T04:28:48.678Z,13.43
2023-05-10T04:31:51.950Z,13.34
2023-05-10T04:34:52.400Z,13.30
2023-05-10T04:37:57.093Z,13.41
2023-05-10T04:41:01.960Z,13.57
2023-05-10T04:44:08.314Z,13.62
2023-05-10T04:47:12.637Z,13.64
2023-05-10T04:50:15.269Z,13.67
2023-05-10T04:53:20.714Z,13.65
2023-05-10T04:56:26.004Z,13.70
2023-05-10T04:59:27.963Z,13.68
2023-05-10T05:02:34.421Z,13.60
2023-05-10T05:05:36.370Z,13.63
2023-05-10T05:08:41.410Z,13.56
2023-05-10T05:11:46.614Z,13.59
2023-05-10T05:14:51.769Z,13.59
2023-05-10T05:17:19.946Z,13.64
2023-05-10T05:20:09.533Z,13.67
2023-05-10T05:23:01.755Z,13.73
2023-05-10T05:25:29.950Z,13.73
2023-05-10T05:28:09.978Z,13.75
2023-05-10T05:30:38.170Z,13.80
2023-05-10T05:33:16.481Z,13.86
2023-05-10T05:38:37.115Z,13.93
2023-05-10T05:41:28.990Z,13.97
2023-05-10T05:43:57.236Z,13.97
2023-05-10T05:46:34.496Z,14.00
2023-05-10T05:49:02.699Z,14.06
2023-05-10T05:51:44.310Z,14.14
2023-05-10T05:54:12.501Z,14.16
2023-05-10T05:56:49.638Z,14.10
2023-05-10T05:59:20.862Z,14.09
2023-05-10T06:02:08.000Z,14.10
2023-05-10T06:05:01.400Z,14.04
2023-05-10T06:08:02.093Z,14.04
2023-05-10T06:11:07.110Z,14.08
2023-05-10T06:13:36.396Z,14.10
2023-05-10T06:16:23.571Z,14.13
2023-05-10T06:19:22.417Z,14.22
2023-05-10T06:22:24.916Z,14.27
2023-05-10T06:25:28.318Z,14.19
2023-05-10T06:28:34.490Z,14.01
2023-05-10T06:31:39.223Z,13.90
2023-05-10T06:34:45.731Z,13.72
2023-05-10T06:37:44.705Z,13.70
2023-05-10T06:40:52.283Z,13.65
2023-05-10T06:43:56.694Z,13.64
2023-05-10T06:46:58.826Z,13.62
2023-05-10T06:50:04.303Z,13.65
2023-05-10T06:53:09.392Z,13.80
2023-05-10T06:56:15.838Z,14.02
2023-05-10T06:59:18.339Z,14.26
2023-05-10T07:02:21.058Z,14.43
2023-05-10T07:05:26.159Z,14.58
2023-05-10T07:08:23.385Z,14.96
2023-05-10T07:11:34.594Z,14.87
2023-05-10T07:14:41.130Z,14.67
2023-05-10T07:17:45.524Z,14.50
2023-05-10T07:20:47.840Z,14.31
2023-05-10T07:23:52.799Z,14.11
2023-05-10T07:26:57.908Z,14.09
2023-05-10T07:30:01.730Z,14.27
2023-05-10T07:33:07.182Z,14.48
2023-05-10T07:36:09.206Z,14.63
2023-05-10T07:43:19.629Z,14.95
2023-05-10T07:46:55.630Z,15.73
2023-05-10T07:49:38.280Z,16.59
2023-05-10T07:52:30.965Z,17.24
2023-05-10T07:58:41.891Z,19.58
2023-05-10T08:01:57.526Z,20.10
2023-05-10T08:04:50.439Z,20.82
2023-05-10T08:07:51.703Z,21.00
2023-05-10T08:10:56.983Z,21.23
2023-05-10T08:14:01.744Z,21.07
2023-05-10T08:17:08.459Z,20.61
2023-05-10T08:20:11.394Z,20.06
2023-05-10T08:23:17.093Z,20.11
2023-05-10T08:26:18.934Z,20.32
2023-05-10T08:29:24.546Z,20.46
2023-05-10T08:32:26.994Z,20.56
2023-05-10T08:35:34.337Z,20.43
2023-05-10T08:38:14.860Z,20.50
2023-05-10T08:40:44.776Z,20.70
2023-05-10T08:43:47.389Z,20.71
2023-05-10T08:49:52.988Z,19.57
2023-05-10T08:52:55.045Z,19.68
2023-05-10T08:55:46.363Z,19.60
2023-05-10T08:59:06.269Z,19.31
2023-05-10T09:02:09.788Z,19.18
2023-05-10T09:05:17.143Z,19.53
2023-05-10T09:08:20.965Z,19.17
2023-05-10T09:11:23.661Z,19.00
2023-05-10T09:14:19.963Z,18.99
2023-05-10T09:17:31.691Z,19.18
2023-05-10T09:20:36.860Z,19.34
2023-05-10T09:23:48.559Z,19.50
2023-05-10T09:26:49.671Z,19.89
2023-05-10T09:29:48.616Z,19.99
2023-05-10T09:32:53.785Z,20.26
2023-05-10T09:40:03.956Z,20.34
2023-05-10T09:43:06.953Z,19.87
2023-05-10T09:46:11.916Z,19.83
2023-05-10T09:49:17.037Z,20.74
2023-05-10T09:52:22.011Z,21.18
2023-05-10T09:55:12.417Z,20.90
2023-05-10T09:58:27.110Z,20.57
2023-05-10T10:01:32.889Z,20.26
2023-05-10T10:04:37.268Z,20.04
2023-05-10T10:07:41.697Z,19.86
2023-05-10T10:10:50.552Z,20.35
2023-05-10T10:13:52.262Z,21.06
2023-05-10T10:17:06.622Z,21.54
2023-05-10T10:20:00.597Z,21.56
2023-05-10T10:23:02.732Z,21.39
2023-05-10T10:26:07.096Z,21.33
2023-05-10T10:29:12.512Z,21.11
2023-05-10T10:32:14.995Z,20.70
2023-05-10T10:35:19.770Z,20.75
2023-05-10T10:41:31.381Z,20.70
2023-05-10T10:44:41.562Z,20.58
2023-05-10T10:47:38.431Z,20.42
2023-05-10T10:50:43.090Z,20.25
2023-05-10T10:53:49.922Z,20.25
2023-05-10T11:10:31.397Z,19.78
2023-05-10T11:13:14.092Z,19.82
2023-05-10T11:16:09.431Z,19.97
2023-05-10T11:19:29.377Z,20.36
2023-05-10T11:22:29.541Z,20.82
2023-05-10T11:29:03.202Z,20.98
2023-05-10T11:35:23.925Z,21.21
2023-05-10T11:42:13.605Z,21.29
2023-05-10T11:46:00.988Z,21.45
2023-05-10T11:48:59.514Z,21.64
2023-05-10T11:51:30.815Z,21.86
2023-05-10T11:58:17.180Z,22.07
2023-05-10T12:03:47.101Z,21.48
2023-05-10T12:06:33.078Z,21.35
2023-05-10T12:09:01.632Z,21.17
2023-05-10T12:12:05.048Z,21.13
2023-05-10T12:14:40.902Z,21.12
2023-05-10T12:17:14.220Z,21.21
2023-05-10T12:19:48.286Z,21.37
2023-05-10T12:22:19.519Z,21.25
2023-05-10T12:24:56.960Z,21.29
2023-05-10T12:27:58.016Z,21.18
2023-05-10T12:31:04.558Z,21.36
2023-05-10T12:33:55.951Z,21.36
2023-05-10T12:36:27.055Z,20.99
2023-05-10T12:39:16.894Z,20.86
2023-05-10T12:42:18.997Z,20.62
2023-05-10T12:45:23.081Z,20.08
2023-05-10T12:48:29.914Z,19.87
2023-05-10T12:51:34.639Z,19.85
2023-05-10T12:54:30.238Z,19.91
2023-05-10T12:57:34.775Z,20.13
2023-05-10T13:00:18.623Z,20.19
2023-05-10T13:03:09.061Z,20.24
2023-05-10T13:05:52.518Z,20.34
2023-05-10T13:08:58.653Z,20.25
2023-05-10T13:12:00.673Z,20.28
2023-05-10T13:14:29.643Z,20.36
2023-05-10T13:17:10.003Z,20.24
2023-05-10T13:20:16.768Z,20.35
2023-05-10T13:23:17.106Z,20.34
2023-05-10T13:26:22.697Z,20.28
2023-05-10T13:29:22.384Z,20.26
2023-05-10T13:32:20.676Z,20.31
2023-05-10T13:34:57.495Z,20.39
2023-05-10T13:37:42.377Z,20.66
2023-05-10T13:40:34.622Z,20.71
2023-05-10T13:43:10.523Z,20.77
2023-05-10T13:45:50.726Z,20.95
2023-05-10T13:48:52.393Z,20.87
2023-05-10T13:54:13.508Z,20.36
2023-05-10T13:57:07.640Z,20.12
2023-05-10T14:00:23.701Z,20.13
2023-05-10T14:03:19.530Z,20.22
2023-05-10T14:06:17.630Z,20.16
2023-05-10T14:09:26.430Z,19.78
2023-05-10T14:12:35.990Z,19.95
2023-05-10T14:15:55.314Z,20.14
2023-05-10T14:19:05.099Z,20.07
2023-05-10T14:21:46.568Z,19.97
2023-05-10T14:24:55.328Z,20.08
2023-05-10T14:28:28.960Z,20.21
2023-05-10T14:31:04.355Z,20.41
2023-05-10T14:33:32.545Z,20.44
2023-05-10T14:36:01.063Z,20.36
2023-05-10T14:38:32.659Z,20.13
2023-05-10T14:41:06.859Z,19.87
2023-05-10T14:43:35.336Z,19.41
2023-05-10T14:46:13.745Z,19.30
2023-05-10T14:48:42.000Z,19.27
2023-05-10T14:51:23.013Z,19.38
2023-05-10T14:53:51.345Z,19.46
2023-05-10T14:56:19.722Z,19.52
2023-05-10T14:58:52.306Z,19.67
2023-05-10T15:01:31.793Z,19.72
2023-05-10T15:04:00.635Z,19.76
2023-05-10T15:06:42.646Z,19.76
2023-05-10T15:09:10.960Z,19.65
2023-05-10T15:11:52.914Z,19.81
2023-05-10T15:14:21.193Z,20.08
2023-05-10T15:16:59.828Z,20.38
2023-05-10T15:19:28.463Z,20.56
2023-05-10T15:22:06.764Z,20.65
2023-05-10T15:24:37.654Z,20.71
2023-05-10T15:27:11.920Z,20.72
2023-05-10T15:29:40.422Z,20.52
2023-05-10T15:32:27.051Z,20.33
2023-05-10T15:34:55.447Z,20.11
2023-05-10T15:37:26.990Z,19.89
2023-05-10T15:39:56.324Z,19.73
2023-05-10T15:42:34.531Z,19.57
2023-05-10T15:45:02.814Z,19.43
2023-05-10T15:47:41.767Z,19.31
2023-05-10T15:50:11.535Z,19.22
2023-05-10T15:52:39.872Z,19.26
2023-05-10T15:55:13.308Z,19.32
2023-05-10T15:57:41.849Z,19.23
2023-05-10T16:00:11.687Z,19.20
2023-05-10T16:02:44.356Z,19.13
2023-05-10T16:05:14.033Z,19.00
2023-05-10T16:07:45.525Z,18.99
2023-05-10T16:10:13.913Z,18.90
2023-05-10T16:12:44.962Z,18.91
2023-05-10T16:15:13.619Z,18.90
2023-05-10T16:17:43.469Z,18.95
2023-05-10T16:20:12.386Z,18.96
2023-05-10T16:22:43.298Z,18.92
2023-05-10T16:25:13.699Z,18.87
2023-05-10T16:27:43.186Z,18.74
2023-05-10T16:30:11.830Z,18.80
2023-05-10T16:32:41.097Z,18.67
2023-05-10T16:35:11.324Z,18.61
2023-05-10T16:37:39.816Z,18.64
2023-05-10T16:40:09.472Z,18.67
2023-05-10T16:42:37.919Z,18.70
2023-05-10T16:45:09.301Z,18.55
2023-05-10T16:47:38.229Z,18.46
2023-05-10T16:50:08.422Z,18.42
2023-05-10T16:52:38.731Z,18.35
2023-05-10T16:55:07.865Z,18.24
2023-05-10T16:57:36.052Z,18.17
2023-05-10T17:00:05.212Z,18.24
2023-05-10T17:02:33.523Z,18.16
2023-05-10T17:05:01.864Z,18.15
2023-05-10T17:07:30.944Z,18.06
2023-05-10T17:10:00.728Z,18.00
2023-05-10T17:12:29.215Z,17.90
2023-05-10T17:14:57.526Z,17.90
2023-05-10T17:17:44.118Z,17.86
2023-05-10T17:20:13.966Z,17.71
2023-05-10T17:22:43.162Z,17.50
2023-05-10T17:25:12.974Z,17.30
2023-05-10T17:27:41.361Z,17.20
2023-05-10T17:30:10.627Z,17.18
2023-05-10T17:32:38.835Z,17.16
2023-05-10T17:35:08.377Z,17.12
2023-05-10T17:37:36.640Z,17.07
2023-05-10T17:40:07.460Z,17.12
2023-05-10T17:42:37.163Z,17.07
2023-05-10T17:45:05.735Z,17.13
2023-05-10T17:47:34.156Z,17.07
2023-05-10T17:50:02.454Z,16.95
2023-05-10T17:52:33.359Z,16.84
2023-05-10T17:55:02.564Z,16.81
2023-05-10T17:57:30.978Z,16.87
2023-05-10T18:00:09.085Z,16.81
2023-05-10T18:02:38.273Z,16.78
2023-05-10T18:05:07.347Z,16.78
2023-05-10T18:07:36.151Z,16.77
2023-05-10T18:10:05.185Z,16.73
2023-05-10T18:12:33.981Z,16.63
2023-05-10T18:15:10.714Z,16.53
2023-05-10T18:17:39.011Z,16.54
2023-05-10T18:20:08.576Z,16.43
2023-05-10T18:22:37.192Z,16.32
2023-05-10T18:25:06.063Z,16.26
2023-05-10T18:27:36.392Z,16.14
2023-05-10T18:30:07.037Z,16.12
2023-05-10T18:32:38.474Z,16.09
2023-05-10T18:35:07.717Z,16.09
2023-05-10T18:37:39.835Z,16.09
2023-05-10T18:40:12.635Z,16.03
2023-05-10T18:42:47.784Z,16.02
2023-05-10T18:45:16.628Z,16.00
2023-05-10T18:47:55.105Z,16.00
2023-05-10T18:50:24.719Z,15.94
2023-05-10T18:53:02.267Z,15.91
2023-05-10T18:55:30.815Z,15.92
2023-05-10T18:58:08.564Z,15.89
2023-05-10T19:00:36.789Z,15.85
2023-05-10T19:03:15.121Z,15.78
2023-05-10T19:05:43.442Z,15.70
2023-05-10T19:08:24.194Z,15.70
2023-05-10T19:11:26.311Z,15.72
2023-05-10T19:14:31.601Z,15.70
2023-05-10T19:17:33.804Z,15.65
2023-05-10T19:20:05.031Z,15.56
2023-05-10T19:22:47.283Z,15.55
2023-05-10T19:25:21.750Z,15.54
2023-05-10T19:27:51.939Z,15.56
2023-05-10T19:30:20.325Z,15.51
2023-05-10T19:32:48.553Z,15.51
2023-05-10T19:35:18.697Z,15.52
2023-05-10T19:37:47.433Z,15.47
2023-05-10T19:40:17.484Z,15.49
2023-05-10T19:42:45.780Z,15.54
2023-05-10T19:45:15.783Z,15.56
2023-05-10T19:47:44.596Z,15.51
2023-05-10T19:50:13.972Z,15.49
2023-05-10T19:52:43.563Z,15.48
2023-05-10T19:55:12.517Z,15.41
2023-05-10T19:57:40.655Z,15.35
2023-05-10T20:00:13.180Z,15.30
2023-05-10T20:02:41.702Z,15.27
2023-05-10T20:05:10.567Z,15.20
2023-05-10T20:07:38.618Z,15.18
2023-05-10T20:10:09.792Z,15.18
2023-05-10T20:12:38.022Z,15.20
2023-05-10T20:15:08.633Z,15.22
2023-05-10T20:17:37.550Z,15.23
2023-05-10T20:20:06.577Z,15.27
2023-05-10T20:22:34.810Z,15.28
2023-05-10T20:25:02.990Z,15.27
2023-05-10T20:27:32.507Z,15.33
2023-05-10T20:30:02.020Z,15.34
2023-05-10T20:32:30.562Z,15.36
2023-05-10T20:34:58.782Z,15.34
2023-05-10T20:37:28.292Z,15.34
2023-05-10T20:39:56.761Z,15.33
2023-05-10T20:42:25.280Z,15.29
2023-05-10T20:44:54.837Z,15.17
2023-05-10T20:47:24.103Z,15.01
2023-05-10T20:49:52.441Z,14.92
2023-05-10T20:52:21.373Z,14.85
2023-05-10T20:54:50.575Z,14.81
2023-05-10T20:57:18.993Z,14.79
2023-05-10T20:59:47.170Z,14.79
2023-05-10T21:02:19.584Z,14.77
2023-05-10T21:04:48.712Z,14.78
2023-05-10T21:07:18.397Z,14.78
2023-05-10T21:09:46.652Z,14.76
2023-05-10T21:12:14.947Z,14.75
2023-05-10T21:14:44.381Z,14.76
2023-05-10T21:17:12.648Z,14.75
2023-05-10T21:19:42.200Z,14.77
2023-05-10T21:22:11.218Z,14.76
2023-05-10T21:24:39.477Z,14.75
2023-05-10T21:27:09.136Z,14.75
2023-05-10T21:29:37.374Z,14.72
2023-05-10T21:32:05.858Z,14.72
2023-05-10T21:34:34.144Z,14.72
2023-05-10T21:37:03.872Z,14.69
2023-05-10T21:39:32.145Z,14.65
2023-05-10T21:42:00.794Z,14.63
2023-05-10T21:44:28.975Z,14.65
2023-05-10T21:46:58.584Z,14.72
2023-05-10T21:49:27.133Z,14.74
2023-05-10T21:51:55.434Z,14.78
2023-05-10T21:54:26.439Z,14.80
2023-05-10T21:56:54.744Z,14.78
2023-05-10T21:59:23.369Z,14.77
2023-05-10T22:01:51.704Z,14.77
2023-05-10T22:04:19.911Z,14.74
2023-05-10T22:06:49.157Z,14.73
2023-05-10T22:09:18.034Z,14.73
2023-05-10T22:11:48.792Z,14.72
2023-05-10T22:14:17.052Z,14.69
2023-05-10T22:16:45.944Z,14.64
2023-05-10T22:19:14.242Z,14.53
2023-05-10T22:21:42.668Z,14.47
2023-05-10T22:24:10.940Z,14.42
2023-05-10T22:26:39.310Z,14.38
2023-05-10T22:29:08.899Z,14.34
2023-05-10T22:31:37.534Z,14.31
2023-05-10T22:34:05.937Z,14.29
2023-05-10T22:36:34.196Z,14.29
2023-05-10T22:39:02.623Z,14.26
2023-05-10T22:41:32.701Z,14.24
2023-05-10T22:44:00.957Z,14.26
2023-05-10T22:46:30.716Z,14.27
2023-05-10T22:49:00.046Z,14.24
2023-05-10T22:51:28.704Z,14.24
2023-05-10T22:53:56.890Z,14.25
2023-05-10T22:56:25.446Z,14.23
2023-05-10T22:58:53.682Z,14.23
2023-05-10T23:01:22.056Z,14.25
2023-05-10T23:03:51.749Z,14.27
2023-05-10T23:06:20.030Z,14.25
2023-05-10T23:08:48.229Z,14.25
2023-05-10T23:11:17.796Z,14.24
2023-05-10T23:13:45.981Z,14.26
2023-05-10T23:16:14.322Z,14.29
2023-05-10T23:18:42.752Z,14.30
2023-05-10T23:21:12.457Z,14.30
2023-05-10T23:23:40.800Z,14.31
2023-05-10T23:26:09.495Z,14.33
2023-05-10T23:28:38.088Z,14.29
2023-05-10T23:31:06.654Z,14.29
2023-05-10T23:33:35.391Z,14.28
2023-05-10T23:36:03.595Z,14.27
2023-05-10T23:38:33.321Z,14.30
2023-05-10T23:41:01.556Z,14.27
2023-05-10T23:43:29.785Z,14.29
2023-05-10T23:45:59.473Z,14.28
2023-05-10T23:48:28.084Z,14.27
2023-05-10T23:50:56.382Z,14.28
2023-05-10T23:53:24.758Z,14.28
2023-05-10T23:55:55.492Z,14.28
2023-05-10T23:58:23.722Z,14.29
